createdAt,value
2017-08-04T00:00:31.703Z,3.93
2017-08-04T00:02:59.159Z,3.50
2017-08-04T00:05:26.643Z,3.90
2017-08-04T00:07:54.508Z,3.67
2017-08-04T00:10:21.963Z,3.50
2017-08-04T00:12:50.021Z,3.50
2017-08-04T00:15:17.488Z,3.70
2017-08-04T00:17:45.349Z,3.60
2017-08-04T00:20:13.247Z,3.53
2017-08-04T00:22:40.698Z,4.00
2017-08-04T00:25:08.147Z,3.10
2017-08-04T00:27:35.723Z,3.70
2017-08-04T00:30:03.194Z,3.60
2017-08-04T00:32:30.664Z,4.47
2017-08-04T00:34:58.336Z,3.00
2017-08-04T00:37:25.796Z,3.23
2017-08-04T00:39:53.251Z,3.63
2017-08-04T00:42:20.738Z,3.57
2017-08-04T00:44:48.203Z,3.50
2017-08-04T00:47:15.659Z,3.10
2017-08-04T00:49:43.494Z,3.37
2017-08-04T00:52:11.357Z,3.70
2017-08-04T00:54:38.815Z,3.57
2017-08-04T00:57:06.976Z,3.30
2017-08-04T00:59:34.433Z,3.37
2017-08-04T01:02:02.291Z,3.07
2017-08-04T01:04:29.787Z,3.30
2017-08-04T01:06:57.244Z,3.87
2017-08-04T01:09:24.699Z,3.13
2017-08-04T01:11:52.388Z,3.57
2017-08-04T01:14:19.838Z,3.60
2017-08-04T01:16:47.308Z,3.60
2017-08-04T01:19:14.770Z,3.00
2017-08-04T01:21:42.229Z,3.27
2017-08-04T01:24:09.684Z,3.33
2017-08-04T01:26:37.460Z,2.73
2017-08-04T01:29:04.916Z,2.80
2017-08-04T01:31:32.370Z,3.47
2017-08-04T01:33:59.856Z,3.37
2017-08-04T01:36:27.314Z,3.10
2017-08-04T01:38:54.772Z,3.57
2017-08-04T01:41:22.495Z,4.43
2017-08-04T01:43:49.951Z,3.30
2017-08-04T01:46:17.403Z,3.67
2017-08-04T01:48:44.893Z,2.67
2017-08-04T01:51:12.343Z,3.20
2017-08-04T01:53:39.798Z,3.03
2017-08-04T01:56:07.291Z,3.87
2017-08-04T01:58:34.763Z,3.50
2017-08-04T02:01:02.210Z,2.70
2017-08-04T02:03:29.707Z,2.87
2017-08-04T02:05:57.164Z,3.33
2017-08-04T02:08:25.019Z,2.97
2017-08-04T02:10:52.503Z,2.70
2017-08-04T02:13:19.968Z,2.90
2017-08-04T02:15:47.424Z,3.30
2017-08-04T02:18:15.142Z,2.97
2017-08-04T02:20:43.646Z,3.00
2017-08-04T02:23:11.103Z,3.00
2017-08-04T02:25:38.588Z,2.90
2017-08-04T02:28:06.034Z,2.97
2017-08-04T02:30:33.495Z,2.90
2017-08-04T02:33:01.064Z,2.93
2017-08-04T02:35:28.505Z,3.70
2017-08-04T02:37:55.945Z,3.43
2017-08-04T02:40:23.408Z,3.10
2017-08-04T02:42:50.841Z,3.40
2017-08-04T02:45:18.685Z,3.37
2017-08-04T02:47:46.245Z,3.10
2017-08-04T02:50:13.677Z,3.53
2017-08-04T02:52:41.122Z,3.10
2017-08-04T02:55:08.605Z,3.30
2017-08-04T02:57:36.047Z,3.77
2017-08-04T03:00:03.489Z,3.90
2017-08-04T03:02:30.949Z,3.07
2017-08-04T03:04:58.393Z,3.20
2017-08-04T03:07:26.830Z,3.57
2017-08-04T03:09:54.543Z,3.80
2017-08-04T03:12:21.983Z,2.80
2017-08-04T03:14:49.428Z,3.73
2017-08-04T03:17:17.088Z,3.03
2017-08-04T03:19:44.532Z,3.27
2017-08-04T03:22:11.963Z,3.00
2017-08-04T03:24:39.825Z,3.40
2017-08-04T03:27:07.657Z,3.30
2017-08-04T03:29:35.097Z,3.33
2017-08-04T03:32:02.561Z,2.90
2017-08-04T03:34:30.000Z,3.40
2017-08-04T03:36:57.446Z,3.63
2017-08-04T03:39:24.905Z,3.73
2017-08-04T03:41:52.345Z,2.90
2017-08-04T03:44:19.788Z,3.33
2017-08-04T03:46:47.342Z,3.33
2017-08-04T03:49:14.776Z,3.40
2017-08-04T03:51:42.223Z,3.90
2017-08-04T03:54:09.860Z,3.90
2017-08-04T03:56:37.295Z,5.10
2017-08-04T03:59:04.751Z,3.77
2017-08-04T04:01:32.256Z,4.40
2017-08-04T04:04:00.092Z,4.13
2017-08-04T04:06:27.528Z,3.37
2017-08-04T04:08:55.312Z,3.40
2017-08-04T04:11:22.753Z,3.37
2017-08-04T04:13:50.193Z,4.43
2017-08-04T04:16:17.664Z,3.20
2017-08-04T04:18:45.108Z,3.50
2017-08-04T04:21:12.561Z,4.80
2017-08-04T04:23:40.176Z,4.40
2017-08-04T04:26:08.015Z,3.67
2017-08-04T04:28:35.466Z,3.73
2017-08-04T04:31:03.032Z,3.90
2017-08-04T04:33:30.473Z,3.93
2017-08-04T04:35:57.916Z,3.37
2017-08-04T04:38:26.105Z,4.30
2017-08-04T04:40:53.543Z,3.67
2017-08-04T04:43:20.989Z,3.73
2017-08-04T04:45:48.472Z,3.53
2017-08-04T04:48:15.913Z,3.30
2017-08-04T04:50:43.364Z,3.73
2017-08-04T04:53:10.811Z,3.50
2017-08-04T04:55:38.251Z,4.07
2017-08-04T04:58:05.698Z,3.20
2017-08-04T05:00:33.171Z,4.17
2017-08-04T05:03:00.612Z,4.40
2017-08-04T05:05:28.252Z,3.90
2017-08-04T05:07:56.211Z,3.27
2017-08-04T05:10:24.049Z,3.63
2017-08-04T05:12:51.488Z,4.50
2017-08-04T05:15:19.255Z,3.57
2017-08-04T05:17:46.700Z,3.80
2017-08-04T05:20:14.148Z,3.90
2017-08-04T05:22:41.612Z,3.60
2017-08-04T05:25:09.059Z,4.53
2017-08-04T05:27:36.492Z,3.50
2017-08-04T05:30:04.306Z,3.70
2017-08-04T05:32:31.752Z,3.70
2017-08-04T05:34:59.191Z,4.33
2017-08-04T05:37:26.672Z,3.87
2017-08-04T05:39:54.121Z,4.00
2017-08-04T05:42:21.573Z,3.53
2017-08-04T05:44:49.333Z,3.77
2017-08-04T05:47:16.775Z,3.60
2017-08-04T05:49:44.222Z,3.40
2017-08-04T05:52:11.899Z,3.40
2017-08-04T05:54:39.335Z,3.60
2017-08-04T05:57:06.775Z,4.47
2017-08-04T05:59:34.260Z,4.23
2017-08-04T06:02:01.700Z,3.60
2017-08-04T06:04:29.144Z,4.37
2017-08-04T06:06:56.843Z,3.33
2017-08-04T06:09:24.292Z,3.90
2017-08-04T06:11:51.736Z,3.47
2017-08-04T06:14:19.179Z,4.63
2017-08-04T06:16:46.621Z,4.23
2017-08-04T06:19:14.060Z,3.70
2017-08-04T06:21:41.992Z,3.40
2017-08-04T06:24:09.433Z,4.37
2017-08-04T06:26:36.880Z,4.10
2017-08-04T06:29:04.340Z,4.33
2017-08-04T06:31:31.789Z,3.33
2017-08-04T06:33:59.228Z,3.90
2017-08-04T06:36:26.915Z,3.60
2017-08-04T06:38:54.363Z,4.37
2017-08-04T06:41:21.808Z,4.30
2017-08-04T06:43:49.294Z,3.90
2017-08-04T06:46:16.732Z,3.47
2017-08-04T06:48:56.296Z,4.00
2017-08-04T06:51:35.660Z,4.60
2017-08-04T06:54:25.840Z,3.80
2017-08-04T06:56:53.297Z,4.00
2017-08-04T06:59:20.729Z,3.80
2017-08-04T07:01:48.877Z,3.93
2017-08-04T07:04:16.319Z,3.60
2017-08-04T07:06:43.760Z,3.50
2017-08-04T07:09:11.246Z,4.23
2017-08-04T07:11:38.689Z,3.50
2017-08-04T07:14:06.133Z,4.70
2017-08-04T07:16:33.611Z,3.70
2017-08-04T07:19:01.058Z,4.23
2017-08-04T07:21:28.497Z,3.80
2017-08-04T07:23:56.280Z,4.00
2017-08-04T07:26:23.724Z,4.00
2017-08-04T07:28:51.169Z,4.20
2017-08-04T07:31:18.636Z,3.93
2017-08-04T07:33:46.081Z,4.23
2017-08-04T07:36:13.530Z,3.60
2017-08-04T07:38:40.989Z,4.10
2017-08-04T07:41:08.452Z,4.27
2017-08-04T07:43:35.892Z,3.90
2017-08-04T07:46:03.372Z,4.90
2017-08-04T07:48:30.817Z,3.90
2017-08-04T07:50:58.259Z,4.20
2017-08-04T07:53:25.740Z,4.50
2017-08-04T07:55:53.193Z,3.50
2017-08-04T07:58:20.636Z,4.00
2017-08-04T08:00:48.308Z,4.10
2017-08-04T08:03:15.754Z,4.30
2017-08-04T08:05:43.193Z,4.03
2017-08-04T08:08:10.824Z,4.53
2017-08-04T08:10:38.276Z,3.73
2017-08-04T08:13:05.725Z,4.13
2017-08-04T08:15:33.863Z,3.90
2017-08-04T08:18:01.301Z,4.30
2017-08-04T08:20:28.748Z,4.00
2017-08-04T08:22:56.737Z,5.23
2017-08-04T08:25:24.172Z,3.57
2017-08-04T08:27:51.625Z,4.30
2017-08-04T08:30:19.097Z,4.03
2017-08-04T08:32:46.536Z,3.97
2017-08-04T08:37:47.881Z,5.03
2017-08-04T08:40:15.320Z,4.40
2017-08-04T08:42:42.764Z,4.80
2017-08-04T08:45:10.260Z,4.60
2017-08-04T08:47:37.716Z,4.53
2017-08-04T08:50:05.162Z,4.13
2017-08-04T08:52:32.854Z,4.40
2017-08-04T08:55:00.305Z,4.43
2017-08-04T08:57:27.757Z,4.07
2017-08-04T08:59:55.519Z,4.43
2017-08-04T09:02:22.964Z,4.27
2017-08-04T09:04:50.404Z,4.60
2017-08-04T09:07:17.890Z,5.20
2017-08-04T09:09:45.333Z,6.23
2017-08-04T09:12:12.777Z,5.00
2017-08-04T09:14:40.640Z,4.40
2017-08-04T09:17:08.063Z,4.73
2017-08-04T09:19:35.904Z,5.33
2017-08-04T09:22:03.376Z,5.27
2017-08-04T09:24:30.952Z,4.00
2017-08-04T09:26:58.392Z,5.17
2017-08-04T09:29:26.524Z,4.73
2017-08-04T09:31:53.963Z,4.20
2017-08-04T09:34:21.407Z,5.23
2017-08-04T09:36:49.096Z,4.70
2017-08-04T09:39:16.541Z,4.77
2017-08-04T09:41:43.980Z,5.03
2017-08-04T09:44:11.546Z,4.50
2017-08-04T09:46:38.993Z,5.07
2017-08-04T09:49:06.448Z,5.30
2017-08-04T09:51:34.138Z,5.23
2017-08-04T09:54:01.580Z,5.50
2017-08-04T09:56:29.029Z,5.80
2017-08-04T09:58:56.492Z,5.40
2017-08-04T10:01:23.936Z,5.20
2017-08-04T10:03:51.381Z,4.80
2017-08-04T10:06:18.844Z,5.33
2017-08-04T10:08:46.294Z,4.83
2017-08-04T10:11:13.736Z,4.87
2017-08-04T10:13:41.209Z,4.40
2017-08-04T10:16:08.654Z,4.40
2017-08-04T10:18:36.100Z,5.67
2017-08-04T10:21:03.580Z,4.23
2017-08-04T10:23:31.013Z,4.53
2017-08-04T10:25:58.477Z,4.20
2017-08-04T10:28:25.938Z,4.73
2017-08-04T10:30:53.410Z,4.80
2017-08-04T10:33:20.846Z,4.57
2017-08-04T10:35:48.320Z,5.10
2017-08-04T10:38:15.757Z,4.20
2017-08-04T10:40:43.196Z,3.97
2017-08-04T10:43:10.893Z,4.17
2017-08-04T10:45:38.351Z,4.50
2017-08-04T10:48:05.784Z,4.33
2017-08-04T10:50:33.256Z,4.43
2017-08-04T10:53:00.700Z,3.90
2017-08-04T10:55:28.147Z,3.63
2017-08-04T10:57:55.631Z,3.80
2017-08-04T11:00:23.072Z,4.20
2017-08-04T11:02:50.516Z,4.73
2017-08-04T11:05:18.296Z,4.43
2017-08-04T11:07:45.736Z,4.00
2017-08-04T11:10:13.177Z,4.23
2017-08-04T11:12:40.659Z,3.80
2017-08-04T11:15:08.113Z,3.57
2017-08-04T11:17:35.556Z,4.20
2017-08-04T11:20:03.125Z,3.90
2017-08-04T11:22:30.568Z,4.70
2017-08-04T11:24:58.188Z,3.97
2017-08-04T11:27:25.748Z,3.90
2017-08-04T11:29:53.193Z,4.73
2017-08-04T11:32:21.029Z,4.10
2017-08-04T11:34:48.513Z,4.93
2017-08-04T11:37:16.352Z,4.20
2017-08-04T11:39:43.805Z,4.10
2017-08-04T11:42:11.552Z,4.27
2017-08-04T11:44:38.992Z,4.90
2017-08-04T11:47:06.437Z,5.07
2017-08-04T11:49:34.014Z,4.53
2017-08-04T11:52:01.458Z,4.97
2017-08-04T11:54:28.904Z,3.87
2017-08-04T11:56:56.402Z,4.43
2017-08-04T11:59:23.836Z,4.07
2017-08-04T12:01:51.285Z,4.57
2017-08-04T12:04:18.839Z,4.00
2017-08-04T12:06:46.288Z,4.70
2017-08-04T12:09:13.743Z,4.20
2017-08-04T12:11:41.193Z,4.20
2017-08-04T12:14:08.647Z,4.00
2017-08-04T12:16:36.087Z,3.57
2017-08-04T12:19:03.895Z,4.00
2017-08-04T12:21:31.339Z,3.33
2017-08-04T12:23:58.785Z,3.83
2017-08-04T12:26:26.464Z,3.30
2017-08-04T12:28:53.903Z,3.13
2017-08-04T12:31:21.349Z,2.60
2017-08-04T12:33:49.037Z,2.77
2017-08-04T12:36:16.476Z,2.53
2017-08-04T12:38:43.921Z,2.60
2017-08-04T12:41:11.485Z,2.87
2017-08-04T12:43:38.920Z,2.60
2017-08-04T12:46:06.368Z,3.47
2017-08-04T12:48:33.852Z,2.80
2017-08-04T12:51:01.292Z,2.83
2017-08-04T12:53:28.737Z,2.80
2017-08-04T12:55:56.218Z,2.70
2017-08-04T12:58:23.659Z,2.33
2017-08-04T13:00:51.108Z,2.40
2017-08-04T13:03:18.570Z,2.40
2017-08-04T13:05:46.013Z,2.53
2017-08-04T13:08:13.453Z,2.57
2017-08-04T13:10:41.267Z,2.97
2017-08-04T13:13:08.709Z,2.90
2017-08-04T13:15:36.153Z,2.60
2017-08-04T13:18:03.961Z,2.43
2017-08-04T13:20:31.808Z,2.40
2017-08-04T13:22:59.251Z,2.60
2017-08-04T13:25:26.729Z,2.43
2017-08-04T13:27:54.188Z,2.60
2017-08-04T13:30:21.629Z,2.40
2017-08-04T13:32:49.104Z,2.23
2017-08-04T13:35:16.549Z,3.60
2017-08-04T13:37:44.001Z,2.70
2017-08-04T13:40:11.477Z,2.50
2017-08-04T13:42:38.912Z,3.10
2017-08-04T13:45:06.357Z,3.00
2017-08-04T13:47:33.921Z,2.70
2017-08-04T13:50:01.367Z,2.70
2017-08-04T13:52:28.812Z,2.83
2017-08-04T13:54:56.269Z,2.63
2017-08-04T13:57:23.717Z,3.20
2017-08-04T13:59:51.161Z,3.53
2017-08-04T14:02:18.949Z,2.93
2017-08-04T14:04:46.401Z,3.50
2017-08-04T14:07:13.844Z,3.00
2017-08-04T14:09:41.317Z,3.27
2017-08-04T14:12:08.765Z,3.40
2017-08-04T14:14:36.204Z,3.73
2017-08-04T14:17:03.775Z,3.30
2017-08-04T14:19:31.240Z,3.10
2017-08-04T14:21:58.681Z,3.50
2017-08-04T14:24:26.356Z,4.33
2017-08-04T14:26:53.802Z,3.80
2017-08-04T14:29:21.248Z,3.10
2017-08-04T14:31:48.717Z,3.10
2017-08-04T14:34:16.160Z,3.70
2017-08-04T14:36:43.609Z,3.50
2017-08-04T14:39:11.293Z,3.50
2017-08-04T14:41:38.732Z,3.70
2017-08-04T14:44:06.172Z,3.60
2017-08-04T14:46:33.653Z,3.40
2017-08-04T14:49:01.103Z,3.17
2017-08-04T14:51:28.539Z,3.30
2017-08-04T14:53:56.005Z,3.30
2017-08-04T14:56:23.448Z,3.17
2017-08-04T14:58:50.903Z,2.70
2017-08-04T15:01:18.460Z,3.50
2017-08-04T15:03:45.905Z,2.80
2017-08-04T15:06:13.343Z,2.93
2017-08-04T15:08:40.821Z,3.03
2017-08-04T15:11:08.267Z,2.90
2017-08-04T15:13:35.713Z,2.97
2017-08-04T15:16:03.429Z,3.00
2017-08-04T15:18:30.868Z,2.90
2017-08-04T15:20:58.309Z,3.00
2017-08-04T15:23:25.773Z,2.63
2017-08-04T15:25:53.215Z,3.33
2017-08-04T15:28:20.667Z,4.70
2017-08-04T15:30:48.120Z,3.50
2017-08-04T15:33:15.561Z,3.07
2017-08-04T15:35:43.009Z,2.93
2017-08-04T15:38:10.640Z,2.90
2017-08-04T15:40:38.077Z,2.77
2017-08-04T15:43:05.532Z,2.93
2017-08-04T15:45:33.308Z,2.60
2017-08-04T15:48:00.752Z,2.80
2017-08-04T15:50:28.187Z,2.60
2017-08-04T15:52:55.756Z,2.70
2017-08-04T15:55:23.205Z,2.50
2017-08-04T15:57:50.644Z,2.80
2017-08-04T16:00:18.378Z,2.80
2017-08-04T16:02:45.824Z,2.80
2017-08-04T16:05:13.684Z,2.77
2017-08-04T16:07:41.376Z,3.27
2017-08-04T16:10:08.820Z,3.13
2017-08-04T16:12:36.264Z,3.00
2017-08-04T16:15:04.220Z,2.73
2017-08-04T16:17:32.052Z,2.60
2017-08-04T16:19:59.492Z,2.53
2017-08-04T16:22:27.164Z,2.93
2017-08-04T16:24:54.608Z,3.23
2017-08-04T16:27:22.049Z,2.60
2017-08-04T16:29:49.533Z,2.77
2017-08-04T16:32:16.989Z,2.70
2017-08-04T16:34:44.428Z,2.93
2017-08-04T16:37:11.897Z,2.83
2017-08-04T16:39:39.337Z,3.00
2017-08-04T16:42:06.780Z,2.87
2017-08-04T16:44:34.248Z,3.00
2017-08-04T16:47:01.690Z,3.40
2017-08-04T16:49:29.132Z,2.97
2017-08-04T16:51:56.603Z,2.73
2017-08-04T16:54:24.047Z,2.97
2017-08-04T16:56:51.485Z,3.37
2017-08-04T16:59:19.306Z,2.80
2017-08-04T17:01:46.747Z,2.53
2017-08-04T17:04:14.184Z,3.10
2017-08-04T17:06:41.873Z,2.63
2017-08-04T17:09:09.316Z,2.70
2017-08-04T17:11:36.756Z,3.13
2017-08-04T17:14:04.232Z,2.60
2017-08-04T17:16:31.671Z,4.13
2017-08-04T17:18:59.117Z,2.90
2017-08-04T17:21:26.588Z,2.80
2017-08-04T17:23:54.041Z,2.50
2017-08-04T17:26:21.489Z,3.13
2017-08-04T17:28:48.941Z,3.53
2017-08-04T17:31:16.381Z,2.77
2017-08-04T17:33:43.828Z,4.07
2017-08-04T17:36:11.649Z,3.50
2017-08-04T17:38:39.080Z,3.10
2017-08-04T17:41:06.533Z,3.10
2017-08-04T17:43:34.210Z,2.50
2017-08-04T17:46:01.654Z,2.63
2017-08-04T17:48:29.373Z,2.50
2017-08-04T17:50:56.825Z,2.93
2017-08-04T17:53:24.269Z,2.60
2017-08-04T17:55:51.714Z,3.03
2017-08-04T17:58:31.102Z,2.73
2017-08-04T18:00:58.657Z,3.20
2017-08-04T18:03:26.088Z,3.17
2017-08-04T18:05:53.809Z,3.33
2017-08-04T18:08:21.252Z,2.43
2017-08-04T18:10:48.693Z,3.07
2017-08-04T18:13:16.372Z,2.73
2017-08-04T18:15:43.825Z,2.70
2017-08-04T18:18:11.267Z,3.00
2017-08-04T18:20:38.753Z,3.50
2017-08-04T18:23:06.198Z,3.77
2017-08-04T18:25:33.632Z,2.97
2017-08-04T18:28:01.108Z,3.20
2017-08-04T18:30:28.553Z,2.93
2017-08-04T18:32:56.004Z,3.23
2017-08-04T18:35:23.464Z,3.10
2017-08-04T18:37:50.910Z,2.80
2017-08-04T18:40:18.356Z,2.80
2017-08-04T18:42:46.036Z,3.10
2017-08-04T18:45:13.485Z,3.10
2017-08-04T18:47:40.928Z,2.73
2017-08-04T18:50:08.412Z,3.33
2017-08-04T18:52:35.853Z,2.80
2017-08-04T18:55:03.297Z,3.10
2017-08-04T18:57:30.789Z,2.90
2017-08-04T18:59:58.628Z,3.00
2017-08-04T19:02:26.068Z,2.63
2017-08-04T19:04:53.741Z,3.10
2017-08-04T19:07:21.189Z,3.00
2017-08-04T19:09:48.628Z,3.13
2017-08-04T19:12:16.583Z,3.00
2017-08-04T19:14:44.023Z,3.20
2017-08-04T19:17:11.473Z,3.60
2017-08-04T19:19:38.956Z,3.80
2017-08-04T19:22:06.413Z,5.37
2017-08-04T19:24:33.862Z,3.43
2017-08-04T19:27:01.555Z,2.90
2017-08-04T19:29:29.021Z,3.60
2017-08-04T19:31:56.462Z,3.10
2017-08-04T19:34:24.216Z,3.57
2017-08-04T19:36:51.656Z,3.03
2017-08-04T19:39:19.105Z,3.23
2017-08-04T19:41:46.572Z,3.50
2017-08-04T19:44:14.019Z,3.10
2017-08-04T19:46:41.457Z,2.90
2017-08-04T19:49:08.926Z,3.53
2017-08-04T19:51:36.369Z,3.57
2017-08-04T19:54:03.814Z,3.73
2017-08-04T19:56:31.528Z,3.60
2017-08-04T19:58:58.976Z,3.23
2017-08-04T20:01:26.417Z,4.17
2017-08-04T20:03:53.889Z,4.17
2017-08-04T20:06:21.324Z,3.70
2017-08-04T20:08:48.760Z,3.10
2017-08-04T20:11:16.221Z,4.17
2017-08-04T20:13:43.665Z,4.33
2017-08-04T20:16:11.113Z,4.00
2017-08-04T20:18:38.585Z,4.30
2017-08-04T20:21:06.033Z,4.30
2017-08-04T20:23:33.480Z,4.07
2017-08-04T20:26:00.960Z,4.30
2017-08-04T20:28:28.406Z,4.03
2017-08-04T20:30:55.854Z,4.60
2017-08-04T20:33:23.327Z,5.03
2017-08-04T20:35:50.777Z,3.50
2017-08-04T20:38:18.216Z,3.80
2017-08-04T20:40:45.692Z,3.70
2017-08-04T20:43:13.137Z,3.43
2017-08-04T20:45:40.591Z,3.80
2017-08-04T20:48:08.056Z,4.40
2017-08-04T20:50:35.500Z,3.87
2017-08-04T20:53:02.945Z,3.70
2017-08-04T20:55:30.427Z,3.60
2017-08-04T20:57:57.864Z,3.60
2017-08-04T21:00:25.303Z,3.97
2017-08-04T21:02:52.876Z,6.00
2017-08-04T21:05:20.316Z,3.80
2017-08-04T21:07:47.765Z,3.50
2017-08-04T21:10:15.233Z,3.23
2017-08-04T21:12:42.680Z,3.40
2017-08-04T21:15:10.121Z,4.03
2017-08-04T21:17:37.981Z,3.77
2017-08-04T21:20:05.854Z,4.00
2017-08-04T21:22:33.272Z,3.37
2017-08-04T21:25:00.912Z,3.10
2017-08-04T21:27:28.352Z,3.20
2017-08-04T21:29:55.794Z,3.60
2017-08-04T21:32:23.260Z,3.20
2017-08-04T21:34:50.704Z,3.53
2017-08-04T21:37:18.149Z,3.20
2017-08-04T21:39:45.714Z,2.90
2017-08-04T21:42:13.161Z,3.30
2017-08-04T21:44:40.601Z,3.00
2017-08-04T21:47:08.640Z,2.60
2017-08-04T21:49:36.079Z,2.80
2017-08-04T21:52:03.517Z,3.33
2017-08-04T21:54:31.004Z,3.00
2017-08-04T21:56:58.609Z,2.60
2017-08-04T21:59:26.053Z,2.70
2017-08-04T22:01:54.193Z,3.00
2017-08-04T22:04:21.628Z,2.53
2017-08-04T22:06:49.067Z,3.10
2017-08-04T22:09:16.539Z,3.23
2017-08-04T22:11:43.985Z,2.73
2017-08-04T22:14:11.428Z,2.53
2017-08-04T22:16:39.233Z,2.70
2017-08-04T22:19:06.672Z,3.07
2017-08-04T22:21:34.117Z,3.70
2017-08-04T22:24:01.574Z,3.00
2017-08-04T22:26:29.026Z,3.87
2017-08-04T22:28:56.468Z,2.80
2017-08-04T22:31:23.925Z,3.00
2017-08-04T22:33:51.374Z,2.80
2017-08-04T22:36:18.828Z,3.70
2017-08-04T22:38:46.637Z,2.70
2017-08-04T22:41:14.084Z,3.03
2017-08-04T22:43:41.528Z,2.97
2017-08-04T22:46:09.092Z,2.80
2017-08-04T22:48:36.532Z,2.97
2017-08-04T22:51:03.985Z,3.13
2017-08-04T22:53:31.668Z,3.00
2017-08-04T22:55:59.113Z,3.20
2017-08-04T22:58:26.573Z,3.20
2017-08-04T23:00:54.116Z,3.70
2017-08-04T23:03:21.562Z,3.30
2017-08-04T23:05:49.013Z,3.30
2017-08-04T23:08:16.455Z,3.00
2017-08-04T23:10:43.895Z,3.63
2017-08-04T23:13:11.729Z,3.50
2017-08-04T23:15:39.204Z,3.17
2017-08-04T23:18:07.041Z,3.20
2017-08-04T23:20:34.480Z,3.07
2017-08-04T23:23:02.272Z,3.30
2017-08-04T23:25:29.718Z,3.50
2017-08-04T23:27:57.149Z,3.70
2017-08-04T23:30:24.629Z,3.40
2017-08-04T23:32:52.065Z,3.70
2017-08-04T23:35:19.511Z,4.13
2017-08-04T23:37:47.168Z,3.40
2017-08-04T23:40:14.621Z,3.93
2017-08-04T23:42:42.066Z,3.63
2017-08-04T23:45:09.865Z,3.37
2017-08-04T23:47:37.307Z,3.43
2017-08-04T23:50:04.757Z,3.43
2017-08-04T23:52:32.216Z,3.50
2017-08-04T23:54:59.660Z,3.60
2017-08-04T23:57:27.101Z,3.80
2017-08-04T23:59:54.570Z,3.57
